Time;durP1;ratioP1;P1;durP2;ratioP2;P2;SDS_P1;SDS_P2;PMS_P1;PMS_P2;Temp;Humidity;BMP_temperature;BMP_pressure;BME280_temperature;BME280_humidity;BME280_pressure;Samples;Min_cycle;Max_cycle;Signal;HPM_P1;HPM_P2
2023/09/24 00:01:13;;;;;;;0.00;0.00;;;;;;;13.91;100.00;100591.69;4833310;29;20037;-72
2023/09/24 00:03:39;;;;;;;0.00;0.00;;;;;;;13.95;100.00;100587.28;4831240;29;20033;-72
2023/09/24 00:06:07;;;;;;;0.00;0.00;;;;;;;14.00;100.00;100584.47;4853266;29;20047;-73
2023/09/24 00:08:33;;;;;;;0.00;0.00;;;;;;;14.06;100.00;100588.84;4860796;29;21095;-72
2023/09/24 00:10:58;;;;;;;0.00;0.00;;;;;;;14.08;100.00;100578.38;4847687;29;20042;-72
2023/09/24 00:13:24;;;;;;;0.00;0.00;;;;;;;14.17;100.00;100589.59;4855560;29;20488;-74
2023/09/24 00:15:50;;;;;;;0.00;0.00;;;;;;;14.21;100.00;100590.66;4852688;29;20044;-74
2023/09/24 00:18:19;;;;;;;0.00;0.00;;;;;;;14.24;100.00;100594.78;4840822;29;20024;-73
2023/09/24 00:20:45;;;;;;;0.00;0.00;;;;;;;14.29;100.00;100587.31;4856977;29;20473;-73
2023/09/24 00:23:11;;;;;;;0.00;0.00;;;;;;;14.36;100.00;100586.16;4832813;29;20045;-72
2023/09/24 00:25:37;;;;;;;0.00;0.00;;;;;;;14.41;100.00;100595.19;4849347;29;20037;-73
2023/09/24 00:28:07;;;;;;;0.00;0.00;;;;;;;14.41;100.00;100588.84;4847215;29;20045;-73
2023/09/24 00:30:34;;;;;;;0.00;0.00;;;;;;;14.46;100.00;100592.38;4851069;29;20879;-72
2023/09/24 00:33:00;;;;;;;0.00;0.00;;;;;;;14.48;100.00;100589.34;4860253;29;20041;-75
2023/09/24 00:35:26;;;;;;;0.00;0.00;;;;;;;14.49;100.00;100591.81;4854282;29;20029;-72
2023/09/24 00:37:52;;;;;;;0.00;0.00;;;;;;;14.56;100.00;100593.41;4832426;29;20783;-72
2023/09/24 00:40:18;;;;;;;0.00;0.00;;;;;;;14.59;100.00;100584.59;4847480;29;20081;-73
2023/09/24 00:42:44;;;;;;;0.00;0.00;;;;;;;14.61;100.00;100588.72;4825607;29;20049;-73
2023/09/24 00:45:11;;;;;;;0.00;0.00;;;;;;;14.63;100.00;100580.16;4858054;29;20041;-72
2023/09/24 00:47:43;;;;;;;0.00;0.00;;;;;;;14.66;100.00;100587.88;4846792;29;20025;-73
2023/09/24 00:50:10;;;;;;;0.00;0.00;;;;;;;14.68;100.00;100582.88;4848297;29;20041;-73
2023/09/24 00:52:36;;;;;;;0.00;0.00;;;;;;;14.72;100.00;100581.19;4863728;29;20071;-73
2023/09/24 00:55:16;;;;;;;0.00;0.00;;;;;;;14.70;100.00;100572.38;4821597;29;20140;-74
2023/09/24 00:57:46;;;;;;;0.00;0.00;;;;;;;14.75;100.00;100580.59;4865299;29;20122;-73
2023/09/24 01:00:16;;;;;;;0.00;0.00;;;;;;;14.76;100.00;100574.00;4862749;29;20815;-74
2023/09/24 01:02:44;;;;;;;0.00;0.00;;;;;;;14.77;100.00;100575.63;4853655;29;20056;-74
2023/09/24 01:05:09;;;;;;;0.00;0.00;;;;;;;14.81;100.00;100579.44;4882752;29;20476;-73
2023/09/24 01:07:36;;;;;;;0.00;0.00;;;;;;;14.84;100.00;100578.84;4859856;29;20033;-73
2023/09/24 01:10:02;;;;;;;0.00;0.00;;;;;;;14.87;100.00;100568.38;4847498;29;20357;-73
2023/09/24 01:12:29;;;;;;;0.00;0.00;;;;;;;14.92;100.00;100582.94;4863090;29;20113;-74
2023/09/24 01:14:57;;;;;;;0.00;0.00;;;;;;;14.91;100.00;100574.94;4866192;29;20120;-72
2023/09/24 01:17:24;;;;;;;0.10;0.10;;;;;;;14.95;100.00;100578.75;4868423;29;20038;-73
2023/09/24 01:19:52;;;;;;;0.00;0.00;;;;;;;14.97;100.00;100579.28;4868827;29;20040;-74
2023/09/24 01:22:18;;;;;;;0.00;0.00;;;;;;;14.98;100.00;100569.91;4870131;29;20051;-75
2023/09/24 01:24:43;;;;;;;0.10;0.10;;;;;;;14.99;100.00;100577.06;4869701;29;20698;-73
2023/09/24 01:27:08;;;;;;;0.00;0.00;;;;;;;15.00;100.00;100573.19;4855923;29;20088;-73
2023/09/24 01:29:35;;;;;;;0.00;0.00;;;;;;;15.04;100.00;100567.91;4879588;29;20388;-73
2023/09/24 01:32:01;;;;;;;0.00;0.00;;;;;;;15.02;100.00;100568.22;4869738;29;20099;-73
2023/09/24 01:34:26;;;;;;;0.00;0.00;;;;;;;15.05;100.00;100570.38;4872938;29;20053;-73
2023/09/24 01:36:53;;;;;;;0.00;0.00;;;;;;;15.07;100.00;100562.66;4878714;29;20416;-74
2023/09/24 01:39:25;;;;;;;0.00;0.00;;;;;;;15.09;100.00;100554.09;4865150;29;20034;-74
2023/09/24 01:41:51;;;;;;;0.00;0.00;;;;;;;15.12;100.00;100554.31;4864258;29;20093;-74
2023/09/24 01:44:20;;;;;;;0.00;0.00;;;;;;;15.14;100.00;100541.09;4857387;29;20029;-73
2023/09/24 01:46:47;;;;;;;0.00;0.00;;;;;;;15.10;100.00;100536.44;4864219;29;20038;-74
2023/09/24 01:49:13;;;;;;;0.00;0.00;;;;;;;15.14;100.00;100552.09;4852515;29;20095;-74
2023/09/24 01:51:38;;;;;;;0.00;0.00;;;;;;;15.15;100.00;100537.19;4871702;29;20476;-73
2023/09/24 01:54:04;;;;;;;0.00;0.00;;;;;;;15.17;100.00;100537.75;4884308;29;20093;-73
2023/09/24 01:56:30;;;;;;;0.00;0.00;;;;;;;15.18;100.00;100541.31;4853233;29;20056;-73
2023/09/24 01:58:56;;;;;;;0.00;0.00;;;;;;;15.21;100.00;100543.47;4869261;29;20037;-73
2023/09/24 02:01:22;;;;;;;0.00;0.00;;;;;;;15.23;100.00;100537.66;4860804;29;20025;-74
2023/09/24 02:03:48;;;;;;;0.00;0.00;;;;;;;15.25;100.00;100529.94;4863596;29;20026;-74
2023/09/24 02:06:17;;;;;;;0.00;0.00;;;;;;;15.21;100.00;100523.38;4852537;29;20040;-73
2023/09/24 02:08:46;;;;;;;0.00;0.00;;;;;;;15.30;100.00;100527.94;4885157;29;20048;-74
2023/09/24 02:11:12;;;;;;;0.00;0.00;;;;;;;15.27;100.00;100530.47;4865985;29;20036;-74
2023/09/24 02:13:38;;;;;;;0.00;0.00;;;;;;;15.31;100.00;100531.50;4864253;29;20326;-74
2023/09/24 02:16:06;;;;;;;0.00;0.00;;;;;;;15.30;100.00;100525.19;4861438;29;20041;-74
2023/09/24 02:18:32;;;;;;;0.00;0.00;;;;;;;15.32;100.00;100524.91;4862058;29;20576;-74
2023/09/24 02:21:01;;;;;;;0.00;0.00;;;;;;;15.32;100.00;100522.13;4864169;29;20042;-74
2023/09/24 02:23:26;;;;;;;0.00;0.00;;;;;;;15.33;100.00;100519.09;4876694;29;20043;-73
2023/09/24 02:25:55;;;;;;;0.00;0.00;;;;;;;15.39;100.00;100519.00;4872293;29;20037;-73
2023/09/24 02:28:20;;;;;;;0.00;0.00;;;;;;;15.43;100.00;100531.88;4870296;29;20493;-74
2023/09/24 02:30:47;;;;;;;0.00;0.00;;;;;;;15.42;100.00;100524.75;4854409;29;20072;-75
2023/09/24 02:33:13;;;;;;;0.00;0.00;;;;;;;15.34;100.00;100511.63;4867621;29;20021;-72
2023/09/24 02:35:39;;;;;;;0.00;0.00;;;;;;;15.39;100.00;100517.09;4853588;29;20120;-74
2023/09/24 02:38:05;;;;;;;0.00;0.00;;;;;;;15.40;100.00;100517.91;4873201;29;20567;-74
2023/09/24 02:40:30;;;;;;;0.00;0.00;;;;;;;15.37;100.00;100544.09;4868610;29;20116;-74
2023/09/24 02:43:00;;;;;;;0.00;0.00;;;;;;;15.33;100.00;100526.50;4886509;29;20040;-73
2023/09/24 02:45:29;;;;;;;0.00;0.00;;;;;;;15.29;100.00;100531.00;4856528;29;20037;-73
2023/09/24 02:47:55;;;;;;;0.00;0.00;;;;;;;15.29;100.00;100525.50;4878282;29;20068;-73
2023/09/24 02:50:24;;;;;;;0.00;0.00;;;;;;;15.30;100.00;100532.63;4866900;29;20068;-74
2023/09/24 02:53:00;;;;;;;0.00;0.00;;;;;;;15.30;100.00;100516.94;4860999;29;20047;-72
2023/09/24 02:55:29;;;;;;;0.00;0.00;;;;;;;15.31;100.00;100517.75;4856558;29;20046;-74
2023/09/24 02:57:55;;;;;;;0.00;0.00;;;;;;;15.32;100.00;100513.88;4849113;29;20022;-73
2023/09/24 03:00:26;;;;;;;0.00;0.00;;;;;;;15.32;100.00;100511.13;4861396;29;20029;-73
2023/09/24 03:02:57;;;;;;;0.00;0.00;;;;;;;15.33;100.00;100521.84;4858430;29;20021;-73
2023/09/24 03:05:25;;;;;;;0.00;0.00;;;;;;;15.33;100.00;100518.25;4854744;29;20050;-73
2023/09/24 03:07:54;;;;;;;0.00;0.00;;;;;;;15.34;100.00;100511.63;4861622;29;21667;-73
2023/09/24 03:10:21;;;;;;;0.00;0.00;;;;;;;15.36;100.00;100506.63;4847537;29;20073;-73
2023/09/24 03:12:50;;;;;;;0.00;0.00;;;;;;;15.34;100.00;100503.38;4836843;29;20056;-73
2023/09/24 03:15:16;;;;;;;0.00;0.00;;;;;;;15.36;100.00;100503.88;4847141;29;20101;-73
2023/09/24 03:17:43;;;;;;;0.00;0.00;;;;;;;15.36;100.00;100503.88;4845695;29;20039;-73
2023/09/24 03:20:29;;;;;;;0.00;0.00;;;;;;;15.38;100.00;100507.19;4846583;29;20055;-74
2023/09/24 03:22:58;;;;;;;0.00;0.00;;;;;;;15.43;100.00;100511.78;4867177;29;20551;-73
2023/09/24 03:25:25;;;;;;;0.00;0.00;;;;;;;15.44;100.00;100494.97;4852032;29;20033;-73
2023/09/24 03:27:53;;;;;;;0.00;0.00;;;;;;;15.43;100.00;100498.81;4854110;29;20024;-72
2023/09/24 03:30:20;;;;;;;0.00;0.00;;;;;;;15.44;100.00;100494.97;4862108;29;20036;-73
2023/09/24 03:32:47;;;;;;;0.00;0.00;;;;;;;15.40;100.00;100487.59;4856133;29;20064;-72
2023/09/24 03:35:13;;;;;;;0.00;0.00;;;;;;;15.43;100.00;100485.03;4832475;29;20039;-72
2023/09/24 03:37:43;;;;;;;0.00;0.00;;;;;;;15.43;100.00;100487.81;4868217;29;20021;-73
2023/09/24 03:40:11;;;;;;;0.00;0.00;;;;;;;15.43;100.00;100490.56;4853353;29;20568;-73
2023/09/24 03:42:38;;;;;;;0.00;0.00;;;;;;;15.47;100.00;100483.34;4873814;29;20032;-73
2023/09/24 03:45:05;;;;;;;0.00;0.00;;;;;;;15.48;100.00;100482.22;4874791;29;20029;-73
2023/09/24 03:47:30;;;;;;;0.00;0.00;;;;;;;15.53;100.00;100487.66;4863271;29;20029;-73
2023/09/24 03:49:56;;;;;;;0.00;0.00;;;;;;;15.52;100.00;100485.19;4848955;29;20029;-72
2023/09/24 03:52:21;;;;;;;0.00;0.00;;;;;;;15.52;100.00;100479.69;4836373;29;20381;-72
2023/09/24 03:54:47;;;;;;;0.00;0.00;;;;;;;15.51;100.00;100492.66;4854945;29;20041;-73
2023/09/24 03:57:12;;;;;;;0.00;0.00;;;;;;;15.50;100.00;100474.47;4851454;29;20056;-73
2023/09/24 03:59:37;;;;;;;0.00;0.00;;;;;;;15.48;100.00;100478.66;4838090;29;20033;-73
2023/09/24 04:02:07;;;;;;;0.00;0.00;;;;;;;15.52;100.00;100486.03;4854187;29;20030;-74
2023/09/24 04:04:35;;;;;;;0.10;0.10;;;;;;;15.52;100.00;100486.03;4851642;29;20029;-73
2023/09/24 04:07:08;;;;;;;0.00;0.00;;;;;;;15.54;100.00;100470.00;4852236;29;20029;-74
2023/09/24 04:09:33;;;;;;;0.00;0.00;;;;;;;15.61;100.00;100482.59;4848893;29;20051;-74
2023/09/24 04:12:00;;;;;;;0.00;0.00;;;;;;;15.63;100.00;100488.66;4852669;29;20461;-73
2023/09/24 04:14:25;;;;;;;0.00;0.00;;;;;;;15.65;100.00;100480.88;4851354;29;20044;-73
2023/09/24 04:16:52;;;;;;;0.00;0.00;;;;;;;15.65;100.00;100483.63;4850073;29;20037;-73
2023/09/24 04:19:17;;;;;;;0.00;0.00;;;;;;;15.69;100.00;100485.50;4850471;29;20041;-73
2023/09/24 04:21:45;;;;;;;0.00;0.00;;;;;;;15.69;100.00;100484.69;4832306;29;20045;-73
2023/09/24 04:24:10;;;;;;;0.00;0.00;;;;;;;15.74;100.00;100501.16;4854629;29;20034;-74
2023/09/24 04:26:38;;;;;;;0.00;0.00;;;;;;;15.75;100.00;100497.25;4837949;29;20033;-72
2023/09/24 04:29:03;;;;;;;0.00;0.00;;;;;;;15.81;100.00;100498.03;4832658;29;20026;-73
2023/09/24 04:31:29;;;;;;;0.00;0.00;;;;;;;15.77;100.00;100486.78;4842246;29;20090;-74
2023/09/24 04:33:54;;;;;;;0.00;0.00;;;;;;;15.83;100.00;100496.63;4873426;29;20104;-73
2023/09/24 04:36:20;;;;;;;0.00;0.00;;;;;;;15.82;100.00;100489.47;4846302;29;20120;-72
2023/09/24 04:38:47;;;;;;;0.00;0.00;;;;;;;15.82;100.00;100489.47;4846247;29;20041;-72
2023/09/24 04:41:13;;;;;;;0.00;0.00;;;;;;;15.85;100.00;100488.88;4850704;29;20072;-73
2023/09/24 04:43:39;;;;;;;0.00;0.00;;;;;;;15.86;100.00;100490.50;4857105;29;20412;-74
2023/09/24 04:46:04;;;;;;;0.00;0.00;;;;;;;15.84;100.00;100498.28;4857415;29;20045;-73
2023/09/24 04:48:35;;;;;;;0.00;0.00;;;;;;;15.80;100.00;100485.38;4853454;29;20065;-72
2023/09/24 04:51:01;;;;;;;0.00;0.00;;;;;;;15.80;100.00;100491.72;4862358;29;20029;-73
2023/09/24 04:53:26;;;;;;;0.00;0.00;;;;;;;15.79;100.00;100495.59;4857962;29;20552;-73
2023/09/24 04:55:52;;;;;;;0.00;0.00;;;;;;;15.82;100.00;100486.72;4847164;29;20181;-74
2023/09/24 04:58:17;;;;;;;0.00;0.00;;;;;;;15.85;100.00;100486.09;4842052;29;20034;-73
2023/09/24 05:00:43;;;;;;;0.00;0.00;;;;;;;15.86;100.00;100485.00;4847264;29;20870;-74
2023/09/24 05:03:08;;;;;;;0.00;0.00;;;;;;;15.91;100.00;100497.06;4845399;29;20025;-72
2023/09/24 05:05:34;;;;;;;0.00;0.00;;;;;;;15.93;100.00;100483.78;4852611;29;20044;-73
2023/09/24 05:08:02;;;;;;;0.00;0.00;;;;;;;15.94;100.00;100479.91;4853477;29;20033;-73
2023/09/24 05:10:28;;;;;;;0.00;0.00;;;;;;;15.97;100.00;100473.78;4856974;29;20025;-74
2023/09/24 05:12:53;;;;;;;0.00;0.00;;;;;;;15.99;100.00;100483.41;4858546;29;20086;-74
2023/09/24 05:15:21;;;;;;;0.00;0.00;;;;;;;15.99;100.00;100482.56;4865360;29;20033;-75
2023/09/24 05:17:46;;;;;;;0.00;0.00;;;;;;;15.98;100.00;100486.47;4839421;29;20115;-73
2023/09/24 05:20:15;;;;;;;0.00;0.00;;;;;;;16.00;100.00;100486.97;4839150;29;20033;-74
2023/09/24 05:22:40;;;;;;;0.10;0.10;;;;;;;15.97;100.00;100485.63;4862115;29;20092;-73
2023/09/24 05:25:06;;;;;;;0.00;0.00;;;;;;;16.00;100.00;100484.22;4857781;29;20033;-73
2023/09/24 05:27:33;;;;;;;0.00;0.00;;;;;;;15.98;100.00;100475.44;4856614;29;20032;-74
2023/09/24 05:29:59;;;;;;;0.00;0.00;;;;;;;15.98;100.00;100480.97;4826470;29;20032;-73
2023/09/24 05:32:25;;;;;;;0.00;0.00;;;;;;;15.97;100.00;100479.31;4822216;29;20022;-74
2023/09/24 05:34:52;;;;;;;0.00;0.00;;;;;;;15.94;100.00;100474.41;4869214;29;20053;-74
2023/09/24 05:37:28;;;;;;;0.00;0.00;;;;;;;16.01;100.00;100491.38;4863447;29;20018;-73
2023/09/24 05:39:54;;;;;;;0.00;0.00;;;;;;;16.03;100.00;100494.66;4838835;29;20048;-74
2023/09/24 05:42:20;;;;;;;0.00;0.00;;;;;;;15.98;100.00;100489.22;4854464;29;20040;-74
2023/09/24 05:44:45;;;;;;;0.00;0.00;;;;;;;16.03;100.00;100495.50;4829595;29;20045;-73
2023/09/24 05:47:15;;;;;;;0.00;0.00;;;;;;;16.03;100.00;100494.66;4832977;29;22113;-73
2023/09/24 05:49:41;;;;;;;0.00;0.00;;;;;;;16.03;100.00;100494.66;4855036;29;20128;-74
2023/09/24 05:52:06;;;;;;;0.00;0.00;;;;;;;15.99;100.00;100496.38;4867005;29;20119;-73
2023/09/24 05:54:32;;;;;;;0.00;0.00;;;;;;;15.88;100.00;100482.75;4875659;29;20032;-72
2023/09/24 05:56:57;;;;;;;0.00;0.00;;;;;;;15.83;100.00;100493.88;4809909;29;20154;-73
2023/09/24 05:59:22;;;;;;;0.00;0.00;;;;;;;15.84;100.00;100492.75;4817064;29;20556;-72
2023/09/24 06:01:48;;;;;;;0.00;0.00;;;;;;;15.79;100.00;100497.53;4826208;29;20042;-71
2023/09/24 06:04:13;;;;;;;0.00;0.00;;;;;;;15.71;100.00;100504.50;4828032;29;20042;-72
2023/09/24 06:06:41;;;;;;;0.00;0.00;;;;;;;15.63;100.00;100494.16;4841250;29;20040;-73
2023/09/24 06:09:09;;;;;;;0.00;0.00;;;;;;;15.52;100.00;100499.81;4833265;29;20492;-74
2023/09/24 06:11:36;;;;;;;0.00;0.00;;;;;;;15.46;100.00;100498.25;4843586;29;20514;-72
2023/09/24 06:14:08;;;;;;;0.00;0.00;;;;;;;15.48;100.00;100507.03;4803586;29;20057;-71
2023/09/24 06:16:36;;;;;;;0.00;0.00;;;;;;;15.45;100.00;100506.78;4818229;29;20867;-72
2023/09/24 06:19:02;;;;;;;0.00;0.00;;;;;;;15.43;100.00;100504.34;4821444;29;20033;-73
2023/09/24 06:21:28;;;;;;;0.00;0.00;;;;;;;15.46;100.00;100502.94;4813897;29;20049;-74
2023/09/24 06:23:54;;;;;;;0.00;0.00;;;;;;;15.48;100.00;100507.03;4852391;29;20037;-75
2023/09/24 06:26:20;;;;;;;0.00;0.00;;;;;;;15.44;100.00;100505.19;4831851;29;20133;-73
2023/09/24 06:28:48;;;;;;;0.00;0.00;;;;;;;15.42;100.00;100508.22;4829631;29;20045;-74
2023/09/24 06:31:13;;;;;;;0.00;0.00;;;;;;;15.45;100.00;100512.31;4827297;29;20076;-74
2023/09/24 06:33:41;;;;;;;0.00;0.00;;;;;;;15.39;100.00;100519.84;4813693;29;20030;-74
2023/09/24 06:36:09;;;;;;;0.00;0.00;;;;;;;15.40;100.00;100515.16;4831572;29;20082;-73
2023/09/24 06:38:35;;;;;;;0.00;0.00;;;;;;;15.38;100.00;100515.44;4822708;29;20065;-74
2023/09/24 06:41:04;;;;;;;0.00;0.00;;;;;;;15.37;100.00;100513.78;4852166;29;20025;-75
2023/09/24 06:43:33;;;;;;;0.00;0.00;;;;;;;15.36;100.00;100514.91;4845406;29;20085;-74
2023/09/24 06:46:04;;;;;;;0.00;0.00;;;;;;;15.35;100.00;100513.28;4823587;29;20445;-74
2023/09/24 06:48:29;;;;;;;0.00;0.00;;;;;;;15.36;100.00;100523.16;4841094;29;20040;-73
2023/09/24 06:50:55;;;;;;;0.00;0.00;;;;;;;15.33;100.00;100516.34;4817407;29;20030;-74
2023/09/24 06:53:28;;;;;;;0.00;0.00;;;;;;;15.29;100.00;100519.97;4827591;29;20365;-74
2023/09/24 06:55:53;;;;;;;0.00;0.00;;;;;;;15.30;100.00;100521.59;4831414;29;20144;-75
2023/09/24 06:58:19;;;;;;;0.00;0.00;;;;;;;15.28;100.00;100518.34;4832786;29;20033;-74
2023/09/24 07:00:47;;;;;;;0.00;0.00;;;;;;;15.25;100.00;100508.72;4848102;29;21737;-74
2023/09/24 07:03:12;;;;;;;0.00;0.00;;;;;;;15.36;100.00;100514.91;4848252;29;20049;-73
2023/09/24 07:05:38;;;;;;;0.00;0.00;;;;;;;15.36;100.00;100515.75;4843943;29;20037;-74
2023/09/24 07:08:04;;;;;;;0.00;0.00;;;;;;;15.43;100.00;100518.13;4837672;29;20040;-74
2023/09/24 07:10:29;;;;;;;0.00;0.00;;;;;;;15.47;100.00;100532.13;4836458;29;20049;-74
2023/09/24 07:12:58;;;;;;;0.00;0.00;;;;;;;15.47;100.00;100516.41;4809497;29;20078;-73
2023/09/24 07:15:23;;;;;;;0.00;0.00;;;;;;;15.48;100.00;100509.78;4841159;29;20037;-73
2023/09/24 07:17:49;;;;;;;0.00;0.00;;;;;;;15.52;100.00;100530.13;4846393;29;20038;-75
2023/09/24 07:20:14;;;;;;;0.00;0.00;;;;;;;15.47;100.00;100510.91;4818560;29;20045;-74
2023/09/24 07:22:40;;;;;;;0.00;0.00;;;;;;;15.54;100.00;100511.34;4837365;29;20049;-74
2023/09/24 07:25:06;;;;;;;0.00;0.00;;;;;;;15.67;100.00;100500.72;4837540;29;20032;-75
2023/09/24 07:27:31;;;;;;;0.00;0.00;;;;;;;15.80;100.00;100502.75;4850795;29;20037;-74
2023/09/24 07:29:57;;;;;;;0.00;0.00;;;;;;;15.98;100.00;100514.88;4815520;29;20025;-73
2023/09/24 07:32:22;;;;;;;0.00;0.00;;;;;;;16.03;100.00;100511.19;4848522;29;20028;-73
2023/09/24 07:34:47;;;;;;;0.00;0.00;;;;;;;16.14;100.00;100511.88;4835295;29;20029;-74
2023/09/24 07:37:16;;;;;;;0.00;0.00;;;;;;;16.22;100.00;100512.00;4840590;29;20389;-73
2023/09/24 07:39:43;;;;;;;0.00;0.00;;;;;;;16.25;100.00;100515.25;4859554;29;20496;-73
2023/09/24 07:42:09;;;;;;;0.00;0.00;;;;;;;16.29;100.00;100513.53;4827456;29;20093;-73
2023/09/24 07:44:34;;;;;;;0.00;0.00;;;;;;;16.40;100.00;100526.06;4849249;29;20034;-73
2023/09/24 07:47:00;;;;;;;0.00;0.00;;;;;;;16.40;100.00;100510.31;4854540;29;20042;-75
2023/09/24 07:49:25;;;;;;;0.00;0.00;;;;;;;16.42;100.00;100521.03;4838610;29;20041;-74
2023/09/24 07:51:51;;;;;;;0.00;0.00;;;;;;;16.45;100.00;100527.91;4857960;29;20071;-73
2023/09/24 07:54:17;;;;;;;0.00;0.00;;;;;;;16.43;100.00;100533.72;4840698;29;20088;-73
2023/09/24 07:56:43;;;;;;;0.00;0.00;;;;;;;16.38;100.00;100528.28;4833532;29;20152;-73
2023/09/24 07:59:11;;;;;;;0.00;0.00;;;;;;;16.30;100.00;100529.78;4848328;29;20041;-74
2023/09/24 08:01:37;;;;;;;0.00;0.00;;;;;;;16.32;100.00;100529.50;4825475;29;20469;-73
2023/09/24 08:04:03;;;;;;;0.00;0.00;;;;;;;16.36;100.00;100527.78;4852271;29;20045;-75
2023/09/24 08:06:29;;;;;;;0.00;0.00;;;;;;;16.37;100.00;100532.19;4860510;29;20033;-74
2023/09/24 08:08:55;;;;;;;0.00;0.00;;;;;;;16.36;100.00;100542.38;4841368;29;20033;-74
2023/09/24 08:11:22;;;;;;;0.00;0.00;;;;;;;16.34;100.00;100541.88;4860361;29;20076;-73
2023/09/24 08:13:47;;;;;;;0.00;0.00;;;;;;;16.27;100.00;100532.34;4854395;29;20029;-74
2023/09/24 08:16:13;;;;;;;0.00;0.00;;;;;;;16.17;100.00;100527.81;4848562;29;20047;-74
2023/09/24 08:18:39;;;;;;;0.00;0.00;;;;;;;16.14;100.00;100534.75;4855742;29;20022;-75
2023/09/24 08:21:05;;;;;;;0.00;0.00;;;;;;;16.11;100.00;100540.06;4829891;29;20507;-76
2023/09/24 08:23:31;;;;;;;0.00;0.00;;;;;;;16.19;100.00;100537.44;4863380;29;20040;-79
2023/09/24 08:25:57;;;;;;;0.00;0.00;;;;;;;16.28;100.00;100533.97;4847065;29;20032;-76
2023/09/24 08:28:22;;;;;;;0.00;0.00;;;;;;;16.38;100.00;100544.84;4852193;29;20029;-76
2023/09/24 08:30:50;;;;;;;0.00;0.00;;;;;;;16.47;100.00;100543.03;4832852;29;20033;-77
2023/09/24 08:33:16;;;;;;;0.00;0.00;;;;;;;16.58;100.00;100538.94;4854029;29;20078;-77
2023/09/24 08:35:41;;;;;;;0.00;0.00;;;;;;;16.66;100.00;100544.91;4848148;29;20029;-77
2023/09/24 08:38:07;;;;;;;0.00;0.00;;;;;;;16.66;100.00;100539.38;4850561;29;20116;-76
2023/09/24 08:40:33;;;;;;;0.00;0.00;;;;;;;16.71;100.00;100536.53;4838965;29;20816;-76
2023/09/24 08:42:58;;;;;;;0.00;0.00;;;;;;;16.79;100.00;100537.75;4841198;29;20033;-77
2023/09/24 08:45:29;;;;;;;0.00;0.00;;;;;;;16.96;100.00;100542.72;4825531;29;20041;-76
2023/09/24 08:47:55;;;;;;;0.00;0.00;;;;;;;17.11;100.00;100545.16;4848858;29;20044;-78
2023/09/24 08:50:21;;;;;;;0.00;0.00;;;;;;;17.09;100.00;100536.38;4881540;29;20388;-76
2023/09/24 08:52:47;;;;;;;0.00;0.00;;;;;;;17.16;100.00;100541.50;4847094;29;20036;-75
2023/09/24 08:55:14;;;;;;;0.00;0.00;;;;;;;17.19;100.00;100530.66;4864216;29;20532;-75
2023/09/24 08:57:42;;;;;;;0.00;0.00;;;;;;;17.09;100.00;100542.72;4850493;29;20465;-77
2023/09/24 09:00:09;;;;;;;0.00;0.00;;;;;;;17.02;100.00;100547.81;4861105;29;20561;-79
2023/09/24 09:02:36;;;;;;;0.00;0.00;;;;;;;17.10;100.00;100543.56;4825493;29;20464;-76
2023/09/24 09:05:04;;;;;;;0.00;0.00;;;;;;;17.00;100.00;100543.75;4863991;29;20033;-79
2023/09/24 09:07:30;;;;;;;0.00;0.00;;;;;;;16.92;100.00;100548.88;4859711;29;20032;-76
2023/09/24 09:10:01;;;;;;;0.00;0.00;;;;;;;16.80;100.00;100542.97;4838384;29;20042;-80
2023/09/24 09:12:26;;;;;;;0.00;0.00;;;;;;;16.65;100.00;100543.28;4867457;29;20049;-77
2023/09/24 09:14:53;;;;;;;0.00;0.00;;;;;;;16.56;100.00;100541.22;4844933;29;20233;-77
2023/09/24 09:17:18;;;;;;;0.00;0.00;;;;;;;16.62;100.00;100549.38;4862968;29;20163;-77
2023/09/24 09:19:52;;;;;;;0.00;0.00;;;;;;;16.60;100.00;100551.63;4840552;29;20560;-76
2023/09/24 09:22:26;;;;;;;0.00;0.00;;;;;;;16.63;100.00;100551.03;4843728;29;20092;-77
2023/09/24 09:25:06;;;;;;;0.00;0.00;;;;;;;16.75;100.00;100543.91;4860365;29;20747;-76
2023/09/24 09:27:35;;;;;;;0.00;0.00;;;;;;;17.01;100.00;100548.13;4866674;29;20033;-77
2023/09/24 09:30:18;;;;;;;0.00;0.00;;;;;;;17.32;100.00;100550.28;4854133;29;20025;-78
2023/09/24 09:32:45;;;;;;;0.00;0.00;;;;;;;17.59;100.00;100564.06;4845432;29;20033;-76
2023/09/24 09:35:11;;;;;;;0.00;0.00;;;;;;;17.82;100.00;100558.59;4834433;29;20396;-77
2023/09/24 09:37:41;;;;;;;0.00;0.00;;;;;;;18.01;100.00;100565.94;4833782;29;20041;-77
2023/09/24 09:40:08;;;;;;;0.00;0.00;;;;;;;17.99;100.00;100560.72;4835880;29;20037;-76
2023/09/24 09:42:35;;;;;;;0.00;0.00;;;;;;;18.07;100.00;100548.09;4857590;29;20098;-77
2023/09/24 09:45:05;;;;;;;0.00;0.00;;;;;;;17.96;100.00;100564.94;4853749;29;20653;-75
2023/09/24 09:47:34;;;;;;;0.00;0.00;;;;;;;18.01;100.00;100550.16;4833660;29;20097;-76
2023/09/24 09:50:00;;;;;;;0.00;0.00;;;;;;;18.23;100.00;100563.19;4858948;29;20039;-77
2023/09/24 09:52:33;;;;;;;0.00;0.00;;;;;;;18.75;100.00;100557.16;4849472;29;20084;-77
2023/09/24 09:55:02;;;;;;;0.00;0.00;;;;;;;19.24;100.00;100542.53;4864126;29;20057;-78
2023/09/24 09:57:32;;;;;;;0.00;0.00;;;;;;;19.51;100.00;100544.25;4865527;29;20085;-76
2023/09/24 09:59:59;;;;;;;0.00;0.00;;;;;;;19.61;100.00;100532.84;4854963;29;20136;-77
2023/09/24 10:02:27;;;;;;;0.00;0.00;;;;;;;19.61;100.00;100543.94;4862137;29;20039;-77
2023/09/24 10:04:53;;;;;;;0.00;0.00;;;;;;;19.24;100.00;100526.72;4861392;29;20068;-75
2023/09/24 10:07:21;;;;;;;0.00;0.00;;;;;;;18.78;100.00;100528.03;4851416;29;20041;-75
2023/09/24 10:09:47;;;;;;;0.00;0.00;;;;;;;18.52;100.00;100517.63;4835106;29;20053;-77
2023/09/24 10:12:12;;;;;;;0.00;0.00;;;;;;;18.50;100.00;100528.19;4838485;29;20041;-77
2023/09/24 10:14:40;;;;;;;0.00;0.00;;;;;;;18.67;100.00;100528.28;4835993;29;20044;-77
2023/09/24 10:17:25;;;;;;;0.00;0.00;;;;;;;18.89;100.00;100529.38;4854692;29;20029;-77
2023/09/24 10:19:54;;;;;;;0.00;0.00;;;;;;;18.98;100.00;100530.25;4843765;29;20404;-79
2023/09/24 10:22:34;;;;;;;0.00;0.00;;;;;;;19.07;100.00;100529.44;4831026;29;20123;-76
2023/09/24 10:25:21;;;;;;;0.00;0.00;;;;;;;19.12;100.00;100532.09;4867049;29;20127;-76
2023/09/24 10:28:04;;;;;;;0.00;0.00;;;;;;;19.32;100.00;100531.47;4842451;29;20044;-76
2023/09/24 10:31:25;;;;;;;0.00;0.00;;;;;;;19.75;100.00;100540.19;4850693;29;20025;-76
2023/09/24 10:33:51;;;;;;;0.00;0.00;;;;;;;20.07;100.00;100527.00;4861475;29;20508;-75
2023/09/24 10:36:29;;;;;;;0.00;0.00;;;;;;;20.55;100.00;100537.06;4851309;29;20104;-77
2023/09/24 10:39:10;;;;;;;0.00;0.00;;;;;;;20.66;98.60;100541.13;4836220;29;20025;-77
2023/09/24 10:41:36;;;;;;;0.00;0.00;;;;;;;20.72;95.74;100531.47;4846990;29;20072;-77
2023/09/24 10:44:24;;;;;;;0.00;0.00;;;;;;;21.49;92.88;100546.47;4837410;29;20030;-76
2023/09/24 10:46:50;;;;;;;0.00;0.00;;;;;;;21.69;87.37;100548.47;4863525;29;20171;-76
2023/09/24 10:49:24;;;;;;;0.00;0.00;;;;;;;21.83;86.60;100527.91;4838990;29;20491;-77
2023/09/24 10:51:58;;;;;;;0.00;0.00;;;;;;;21.90;88.80;100520.66;4846787;29;20041;-76
2023/09/24 10:54:23;;;;;;;0.00;0.00;;;;;;;21.90;88.64;100517.03;4859105;29;20085;-77
2023/09/24 10:56:49;;;;;;;0.00;0.00;;;;;;;21.94;90.52;100527.16;4841474;29;20061;-77
2023/09/24 10:59:16;;;;;;;0.00;0.00;;;;;;;21.93;88.91;100516.34;4832946;29;20699;-75
2023/09/24 11:01:44;;;;;;;0.00;0.00;;;;;;;21.67;86.26;100508.22;4873889;29;20735;-76
2023/09/24 11:04:10;;;;;;;0.00;0.00;;;;;;;21.35;88.84;100518.88;4823261;29;20041;-76
2023/09/24 11:06:36;;;;;;;0.00;0.00;;;;;;;21.44;88.97;100516.88;4854221;29;20047;-76
2023/09/24 11:09:19;;;;;;;0.00;0.00;;;;;;;21.21;88.53;100505.25;4845140;29;20497;-77
2023/09/24 11:11:45;;;;;;;0.00;0.00;;;;;;;20.90;86.72;100509.16;4873313;29;20120;-75
2023/09/24 11:14:23;;;;;;;0.00;0.00;;;;;;;20.48;91.48;100522.84;4838850;29;20037;-75
2023/09/24 11:16:54;;;;;;;0.00;0.00;;;;;;;19.96;90.56;100494.03;4828666;29;20054;-76
2023/09/24 11:19:45;;;;;;;0.00;0.00;;;;;;;19.87;95.46;100509.84;4842595;29;20037;-76